Crew | Aerofun Virtual



 METAR AND TAF INFORMATION
METAR FOR MMMX
ADDS - METARS form results

(1744 UTC 29 January 2020)
Data provider http://aviationweather.gov/metar/data/
 
METAR text: MMMX 291726Z 16003KT 7SM SKC 19/M02 A3027 NOSIG RMK HZY
Conditions at: MMMX (MEXICO CITY/LICE, MX) observed 1726 UTC 29 January 2020
Temperature: 19.0°C (66°F)
Dewpoint: -2.0°C (28°F) [RH = 24%]
Pressure (altimeter): 30.27 inches Hg (1025.1 mb)
Winds: from the SSE (160 degrees) at 3 MPH (3 knots; 1.5 m/s)
Visibility: 7 miles (11 km)
Ceiling: at least 12,000 feet AGL
Clouds: clear skies
Weather: no significant weather observed at this time

METAR text: MMMX 291648Z 08003KT 6SM SKC 17/M01 A3030 NOSIG RMK HZY
Conditions at: MMMX (MEXICO CITY/LICE, MX) observed 1648 UTC 29 January 2020
Temperature: 17.0°C (63°F)
Dewpoint: -1.0°C (30°F) [RH = 29%]
Pressure (altimeter): 30.30 inches Hg (1026.2 mb)
Winds: from the E (80 degrees) at 3 MPH (3 knots; 1.5 m/s)
Visibility: 6 miles (10 km)
Ceiling: at least 12,000 feet AGL
Clouds: clear skies
Weather: no significant weather observed at this time

METAR text: MMMX 291647Z 05002KT 6SM SKC 17/M01 A3030 NOSIG RMK HZY
Conditions at: MMMX (MEXICO CITY/LICE, MX) observed 1647 UTC 29 January 2020
Temperature: 17.0°C (63°F)
Dewpoint: -1.0°C (30°F) [RH = 29%]
Pressure (altimeter): 30.30 inches Hg (1026.2 mb)
Winds: from the NE (50 degrees) at 2 MPH (2 knots; 1.0 m/s)
Visibility: 6 miles (10 km)
Ceiling: at least 12,000 feet AGL
Clouds: clear skies
Weather: no significant weather observed at this time

Forecast for: MMMX (MEXICO CITY/LICE, MX)
Text: TAF MMMX 291626Z 2918/3024 20010G20KT P6SM SKC TX22/2920Z TN09/3012Z
Forecast period: 1800 UTC 29 January 2020 to 0200 UTC 30 January 2020
Forecast type: FROM: standard forecast or significant change
Winds: from the SSW (200 degrees) at 12 MPH (10 knots; 5.1 m/s)
gusting to 23 MPH (20 knots; 10.3 m/s)
Visibility: 6 or more miles 10+ km)
Clouds: clear skies
Weather: no significant weather forecast for this period
Text: BECMG 3002/3003 00000KT
Forecast period: 0200 to 1600 UTC 30 January 2020
Forecast type: BECOMING: Conditions expected to become as follows by 0300 UTC 30 January 2020
Winds: calm
Visibility: 6 or more miles 10+ km)
Clouds: clear skies
Weather: no significant weather forecast for this period
Text: FM301600 25010KT P6SM SKC
Forecast period: 1600 UTC 30 January 2020 to 0000 UTC 31 January 2020
Forecast type: FROM: standard forecast or significant change
Winds: from the WSW (250 degrees) at 12 MPH (10 knots; 5.1 m/s)
Visibility: 6 or more miles 10+ km)
Clouds: clear skies
Weather: no significant weather forecast for this period

 AIRPORT MAP

 RUNWAY INFORMATION
Runway 05L Runway length 12966 ft Runway width 148 ft
Runway elevation 7309 ft Runway displaced threshold 1034 ft Runway heading 59
Runway 23R Runway length 12966 ft Runway width 148 ft
Runway elevation 7311 ft Runway displaced threshold 1641 ft Runway heading 239
Runway 05R Runway length 12795 ft Runway width 148 ft
Runway elevation 7316 ft Runway displaced threshold 1493 ft Runway heading 59
Runway 23L Runway length 12795 ft Runway width 148 ft
Runway elevation 7295 ft Runway displaced threshold 0 ft Runway heading 239

 AIRPORT FREQUENCIES
Type APP Name MEXICO APP Frequency 121.2 MHZ
Type ARR Name MEXICO ARR Frequency 129.6 MHZ
Type ATIS Name ATIS Frequency 127.65 MHZ
Type CLD Name MEXICO CLN Frequency 122.1 MHZ
Type DEP Name MEXICO DEP Frequency 120.5 MHZ
Type GND Name GND Frequency 121 MHZ
Type RDO Name MEXICO INF Frequency 126.9 MHZ
Type TWR Name MEXICO TWR Frequency 118.55 MHZ

 AIRPORT NEAR NAVIGATION AIDS
Type VOR-DME Name Mexico Frequency 115600 KHZ
Type NDB Name Plaza Frequency 370 KHZ
Type NDB Name Tepexpan Frequency 359 KHZ